sensor_id;sensor_type;location;lat;lon;timestamp;P1;durP1;ratioP1;P2;durP2;ratioP2
47922;SDS011;33688;44.354;9.228;2022-11-15T00:01:53;5.47;;;4.15;;
47922;SDS011;33688;44.354;9.228;2022-11-15T00:04:37;5.13;;;4.22;;
47922;SDS011;33688;44.354;9.228;2022-11-15T00:07:22;4.75;;;4.05;;
47922;SDS011;33688;44.354;9.228;2022-11-15T00:10:06;4.55;;;4.07;;
47922;SDS011;33688;44.354;9.228;2022-11-15T00:12:51;4.70;;;3.78;;
47922;SDS011;33688;44.354;9.228;2022-11-15T00:15:39;6.38;;;3.83;;
47922;SDS011;33688;44.354;9.228;2022-11-15T00:18:25;5.82;;;4.47;;
47922;SDS011;33688;44.354;9.228;2022-11-15T00:21:10;4.20;;;3.80;;
47922;SDS011;33688;44.354;9.228;2022-11-15T00:23:56;6.78;;;3.92;;
47922;SDS011;33688;44.354;9.228;2022-11-15T00:26:42;5.68;;;4.72;;
47922;SDS011;33688;44.354;9.228;2022-11-15T00:29:27;3.95;;;3.55;;
47922;SDS011;33688;44.354;9.228;2022-11-15T00:32:11;6.30;;;5.05;;
47922;SDS011;33688;44.354;9.228;2022-11-15T00:34:55;4.57;;;4.15;;
47922;SDS011;33688;44.354;9.228;2022-11-15T00:37:39;3.83;;;3.53;;
47922;SDS011;33688;44.354;9.228;2022-11-15T00:40:24;5.10;;;3.63;;
47922;SDS011;33688;44.354;9.228;2022-11-15T00:43:09;6.32;;;4.55;;
47922;SDS011;33688;44.354;9.228;2022-11-15T00:45:53;4.57;;;3.70;;
47922;SDS011;33688;44.354;9.228;2022-11-15T00:48:37;4.20;;;3.70;;
47922;SDS011;33688;44.354;9.228;2022-11-15T00:51:22;5.28;;;4.50;;
47922;SDS011;33688;44.354;9.228;2022-11-15T00:54:06;3.75;;;3.45;;
47922;SDS011;33688;44.354;9.228;2022-11-15T00:56:50;3.75;;;3.35;;
47922;SDS011;33688;44.354;9.228;2022-11-15T00:59:34;3.65;;;3.25;;
47922;SDS011;33688;44.354;9.228;2022-11-15T01:02:20;5.55;;;3.70;;
47922;SDS011;33688;44.354;9.228;2022-11-15T01:05:05;4.75;;;4.18;;
47922;SDS011;33688;44.354;9.228;2022-11-15T01:07:53;4.13;;;3.72;;
47922;SDS011;33688;44.354;9.228;2022-11-15T01:10:41;4.57;;;3.78;;
47922;SDS011;33688;44.354;9.228;2022-11-15T01:13:26;4.63;;;4.22;;
47922;SDS011;33688;44.354;9.228;2022-11-15T01:16:13;3.65;;;3.30;;
47922;SDS011;33688;44.354;9.228;2022-11-15T01:19:02;3.85;;;3.45;;
47922;SDS011;33688;44.354;9.228;2022-11-15T01:21:50;3.88;;;3.47;;
47922;SDS011;33688;44.354;9.228;2022-11-15T01:24:35;3.80;;;3.50;;
47922;SDS011;33688;44.354;9.228;2022-11-15T01:27:19;4.30;;;3.47;;
47922;SDS011;33688;44.354;9.228;2022-11-15T01:30:05;3.60;;;3.30;;
47922;SDS011;33688;44.354;9.228;2022-11-15T01:32:50;3.70;;;3.40;;
47922;SDS011;33688;44.354;9.228;2022-11-15T01:35:37;4.93;;;3.95;;
47922;SDS011;33688;44.354;9.228;2022-11-15T01:38:23;4.35;;;3.95;;
47922;SDS011;33688;44.354;9.228;2022-11-15T01:41:18;4.25;;;3.85;;
47922;SDS011;33688;44.354;9.228;2022-11-15T01:50:19;4.47;;;3.65;;
47922;SDS011;33688;44.354;9.228;2022-11-15T01:53:11;3.72;;;3.33;;
47922;SDS011;33688;44.354;9.228;2022-11-15T01:55:56;4.93;;;3.72;;
47922;SDS011;33688;44.354;9.228;2022-11-15T01:58:41;5.75;;;3.63;;
47922;SDS011;33688;44.354;9.228;2022-11-15T02:01:27;4.80;;;3.40;;
47922;SDS011;33688;44.354;9.228;2022-11-15T02:04:34;4.20;;;3.80;;
47922;SDS011;33688;44.354;9.228;2022-11-15T02:07:23;3.95;;;3.15;;
47922;SDS011;33688;44.354;9.228;2022-11-15T02:10:09;3.60;;;3.05;;
47922;SDS011;33688;44.354;9.228;2022-11-15T02:12:57;3.83;;;3.20;;
47922;SDS011;33688;44.354;9.228;2022-11-15T02:15:59;2.85;;;2.65;;
47922;SDS011;33688;44.354;9.228;2022-11-15T02:19:02;4.00;;;3.60;;
47922;SDS011;33688;44.354;9.228;2022-11-15T02:25:28;3.33;;;3.03;;
47922;SDS011;33688;44.354;9.228;2022-11-15T02:41:34;3.47;;;3.17;;
47922;SDS011;33688;44.354;9.228;2022-11-15T02:45:13;3.45;;;3.08;;
47922;SDS011;33688;44.354;9.228;2022-11-15T02:48:08;3.40;;;3.10;;
47922;SDS011;33688;44.354;9.228;2022-11-15T02:50:54;4.68;;;2.95;;
47922;SDS011;33688;44.354;9.228;2022-11-15T02:53:41;3.90;;;3.42;;
47922;SDS011;33688;44.354;9.228;2022-11-15T02:56:26;4.32;;;3.58;;
47922;SDS011;33688;44.354;9.228;2022-11-15T03:12:29;3.55;;;3.25;;
47922;SDS011;33688;44.354;9.228;2022-11-15T03:15:44;3.58;;;3.05;;
47922;SDS011;33688;44.354;9.228;2022-11-15T03:18:53;3.20;;;2.90;;
47922;SDS011;33688;44.354;9.228;2022-11-15T03:21:50;3.67;;;3.35;;
47922;SDS011;33688;44.354;9.228;2022-11-15T03:24:37;3.40;;;3.00;;
47922;SDS011;33688;44.354;9.228;2022-11-15T03:27:25;3.40;;;3.10;;
47922;SDS011;33688;44.354;9.228;2022-11-15T03:30:17;3.28;;;2.78;;
47922;SDS011;33688;44.354;9.228;2022-11-15T03:33:03;3.28;;;2.97;;
47922;SDS011;33688;44.354;9.228;2022-11-15T03:35:49;3.63;;;3.33;;
47922;SDS011;33688;44.354;9.228;2022-11-15T03:38:36;3.42;;;3.13;;
47922;SDS011;33688;44.354;9.228;2022-11-15T03:41:24;3.28;;;2.97;;
47922;SDS011;33688;44.354;9.228;2022-11-15T03:44:55;3.90;;;3.30;;
47922;SDS011;33688;44.354;9.228;2022-11-15T03:50:49;3.78;;;3.40;;
47922;SDS011;33688;44.354;9.228;2022-11-15T03:53:33;3.35;;;3.05;;
47922;SDS011;33688;44.354;9.228;2022-11-15T03:56:18;3.55;;;3.25;;
47922;SDS011;33688;44.354;9.228;2022-11-15T03:59:03;3.35;;;2.90;;
47922;SDS011;33688;44.354;9.228;2022-11-15T04:01:47;2.90;;;2.60;;
47922;SDS011;33688;44.354;9.228;2022-11-15T04:04:32;5.18;;;3.38;;
47922;SDS011;33688;44.354;9.228;2022-11-15T04:07:17;4.00;;;3.25;;
47922;SDS011;33688;44.354;9.228;2022-11-15T04:10:02;3.00;;;2.75;;
47922;SDS011;33688;44.354;9.228;2022-11-15T04:12:47;3.20;;;2.90;;
47922;SDS011;33688;44.354;9.228;2022-11-15T04:15:31;2.92;;;2.70;;
47922;SDS011;33688;44.354;9.228;2022-11-15T04:18:16;2.50;;;2.28;;
47922;SDS011;33688;44.354;9.228;2022-11-15T04:21:01;3.28;;;2.92;;
47922;SDS011;33688;44.354;9.228;2022-11-15T04:24:05;4.72;;;2.97;;
47922;SDS011;33688;44.354;9.228;2022-11-15T04:26:59;3.38;;;2.80;;
47922;SDS011;33688;44.354;9.228;2022-11-15T04:29:44;3.17;;;2.88;;
47922;SDS011;33688;44.354;9.228;2022-11-15T04:32:28;3.30;;;2.90;;
47922;SDS011;33688;44.354;9.228;2022-11-15T04:35:13;3.10;;;2.75;;
47922;SDS011;33688;44.354;9.228;2022-11-15T04:37:59;3.90;;;3.33;;
47922;SDS011;33688;44.354;9.228;2022-11-15T04:40:44;3.42;;;2.92;;
47922;SDS011;33688;44.354;9.228;2022-11-15T04:43:28;3.00;;;2.75;;
47922;SDS011;33688;44.354;9.228;2022-11-15T04:46:13;3.08;;;2.83;;
47922;SDS011;33688;44.354;9.228;2022-11-15T04:48:57;2.97;;;2.78;;
47922;SDS011;33688;44.354;9.228;2022-11-15T04:51:42;3.03;;;2.72;;
47922;SDS011;33688;44.354;9.228;2022-11-15T04:54:26;3.20;;;2.72;;
47922;SDS011;33688;44.354;9.228;2022-11-15T04:57:11;4.95;;;3.20;;
47922;SDS011;33688;44.354;9.228;2022-11-15T04:59:55;2.97;;;2.75;;
47922;SDS011;33688;44.354;9.228;2022-11-15T05:02:40;2.97;;;2.65;;
47922;SDS011;33688;44.354;9.228;2022-11-15T05:05:43;3.33;;;3.03;;
47922;SDS011;33688;44.354;9.228;2022-11-15T05:08:28;3.08;;;2.50;;
47922;SDS011;33688;44.354;9.228;2022-11-15T05:11:12;3.00;;;2.47;;
47922;SDS011;33688;44.354;9.228;2022-11-15T05:13:56;2.70;;;2.50;;
47922;SDS011;33688;44.354;9.228;2022-11-15T05:16:41;2.85;;;2.28;;
47922;SDS011;33688;44.354;9.228;2022-11-15T05:19:26;2.92;;;2.67;;
47922;SDS011;33688;44.354;9.228;2022-11-15T05:22:10;2.80;;;2.60;;
47922;SDS011;33688;44.354;9.228;2022-11-15T05:24:55;3.88;;;3.10;;
47922;SDS011;33688;44.354;9.228;2022-11-15T05:27:39;2.53;;;2.33;;
47922;SDS011;33688;44.354;9.228;2022-11-15T05:30:23;2.88;;;2.50;;
47922;SDS011;33688;44.354;9.228;2022-11-15T05:33:07;3.42;;;3.13;;
47922;SDS011;33688;44.354;9.228;2022-11-15T05:35:56;2.67;;;2.47;;
47922;SDS011;33688;44.354;9.228;2022-11-15T05:38:55;3.38;;;2.95;;
47922;SDS011;33688;44.354;9.228;2022-11-15T05:42:02;3.60;;;3.00;;
47922;SDS011;33688;44.354;9.228;2022-11-15T05:44:55;3.10;;;2.80;;
47922;SDS011;33688;44.354;9.228;2022-11-15T05:47:42;2.80;;;2.50;;
47922;SDS011;33688;44.354;9.228;2022-11-15T05:50:28;2.85;;;2.55;;
47922;SDS011;33688;44.354;9.228;2022-11-15T05:53:13;3.28;;;2.85;;
47922;SDS011;33688;44.354;9.228;2022-11-15T05:56:03;3.35;;;2.78;;
47922;SDS011;33688;44.354;9.228;2022-11-15T05:58:49;2.97;;;2.65;;
47922;SDS011;33688;44.354;9.228;2022-11-15T06:01:35;2.20;;;2.00;;
47922;SDS011;33688;44.354;9.228;2022-11-15T06:04:19;2.80;;;2.60;;
47922;SDS011;33688;44.354;9.228;2022-11-15T06:07:04;2.85;;;2.55;;
47922;SDS011;33688;44.354;9.228;2022-11-15T06:09:48;2.88;;;2.38;;
47922;SDS011;33688;44.354;9.228;2022-11-15T06:12:33;2.85;;;2.65;;
47922;SDS011;33688;44.354;9.228;2022-11-15T06:15:17;2.88;;;2.60;;
47922;SDS011;33688;44.354;9.228;2022-11-15T06:18:01;2.70;;;2.38;;
47922;SDS011;33688;44.354;9.228;2022-11-15T06:20:46;4.03;;;3.20;;
47922;SDS011;33688;44.354;9.228;2022-11-15T06:23:34;3.13;;;2.83;;
47922;SDS011;33688;44.354;9.228;2022-11-15T06:26:19;2.75;;;2.55;;
47922;SDS011;33688;44.354;9.228;2022-11-15T06:29:03;2.97;;;2.72;;
47922;SDS011;33688;44.354;9.228;2022-11-15T06:31:48;2.40;;;2.20;;
47922;SDS011;33688;44.354;9.228;2022-11-15T06:34:32;2.55;;;2.35;;
47922;SDS011;33688;44.354;9.228;2022-11-15T06:37:17;2.22;;;2.03;;
47922;SDS011;33688;44.354;9.228;2022-11-15T06:40:01;2.42;;;2.22;;
47922;SDS011;33688;44.354;9.228;2022-11-15T06:42:47;3.10;;;2.80;;
47922;SDS011;33688;44.354;9.228;2022-11-15T06:45:31;3.17;;;2.88;;
47922;SDS011;33688;44.354;9.228;2022-11-15T06:48:15;2.58;;;2.38;;
47922;SDS011;33688;44.354;9.228;2022-11-15T06:51:00;2.88;;;2.67;;
47922;SDS011;33688;44.354;9.228;2022-11-15T06:53:46;3.45;;;2.55;;
47922;SDS011;33688;44.354;9.228;2022-11-15T06:56:30;2.67;;;2.35;;
47922;SDS011;33688;44.354;9.228;2022-11-15T06:59:14;2.92;;;2.72;;
47922;SDS011;33688;44.354;9.228;2022-11-15T07:01:59;2.55;;;2.35;;
47922;SDS011;33688;44.354;9.228;2022-11-15T07:04:43;2.63;;;2.35;;
47922;SDS011;33688;44.354;9.228;2022-11-15T07:07:27;3.30;;;2.60;;
47922;SDS011;33688;44.354;9.228;2022-11-15T07:10:12;3.00;;;2.67;;
47922;SDS011;33688;44.354;9.228;2022-11-15T07:12:57;3.05;;;2.75;;
47922;SDS011;33688;44.354;9.228;2022-11-15T07:15:41;3.40;;;2.38;;
47922;SDS011;33688;44.354;9.228;2022-11-15T07:18:25;2.58;;;2.20;;
47922;SDS011;33688;44.354;9.228;2022-11-15T07:21:11;2.80;;;2.50;;
47922;SDS011;33688;44.354;9.228;2022-11-15T07:23:56;2.53;;;2.33;;
47922;SDS011;33688;44.354;9.228;2022-11-15T07:26:40;2.60;;;2.28;;
47922;SDS011;33688;44.354;9.228;2022-11-15T07:29:25;2.30;;;2.10;;
47922;SDS011;33688;44.354;9.228;2022-11-15T07:32:09;2.95;;;2.20;;
47922;SDS011;33688;44.354;9.228;2022-11-15T07:34:54;2.40;;;1.95;;
47922;SDS011;33688;44.354;9.228;2022-11-15T07:37:38;3.85;;;2.42;;
47922;SDS011;33688;44.354;9.228;2022-11-15T07:40:22;5.97;;;2.40;;
47922;SDS011;33688;44.354;9.228;2022-11-15T07:43:07;3.85;;;2.33;;
47922;SDS011;33688;44.354;9.228;2022-11-15T07:45:52;2.92;;;2.60;;
47922;SDS011;33688;44.354;9.228;2022-11-15T07:48:38;3.03;;;2.72;;
47922;SDS011;33688;44.354;9.228;2022-11-15T07:51:23;3.22;;;2.30;;
47922;SDS011;33688;44.354;9.228;2022-11-15T07:54:07;2.42;;;2.22;;
47922;SDS011;33688;44.354;9.228;2022-11-15T07:56:52;2.20;;;2.00;;
47922;SDS011;33688;44.354;9.228;2022-11-15T07:59:37;3.47;;;3.17;;
47922;SDS011;33688;44.354;9.228;2022-11-15T08:02:21;6.28;;;2.53;;
47922;SDS011;33688;44.354;9.228;2022-11-15T08:05:06;6.05;;;2.55;;
47922;SDS011;33688;44.354;9.228;2022-11-15T08:07:50;2.33;;;2.20;;
47922;SDS011;33688;44.354;9.228;2022-11-15T08:10:35;7.00;;;2.92;;
47922;SDS011;33688;44.354;9.228;2022-11-15T08:13:20;3.03;;;2.65;;
47922;SDS011;33688;44.354;9.228;2022-11-15T08:16:05;5.65;;;2.63;;
47922;SDS011;33688;44.354;9.228;2022-11-15T08:18:49;5.63;;;2.58;;
47922;SDS011;33688;44.354;9.228;2022-11-15T08:21:33;18.40;;;3.63;;
47922;SDS011;33688;44.354;9.228;2022-11-15T08:24:19;2.75;;;2.55;;
47922;SDS011;33688;44.354;9.228;2022-11-15T08:27:03;3.40;;;2.67;;
47922;SDS011;33688;44.354;9.228;2022-11-15T08:29:48;3.65;;;2.47;;
47922;SDS011;33688;44.354;9.228;2022-11-15T08:32:34;2.75;;;2.55;;
47922;SDS011;33688;44.354;9.228;2022-11-15T08:35:19;2.63;;;2.42;;
47922;SDS011;33688;44.354;9.228;2022-11-15T08:38:04;3.45;;;2.50;;
47922;SDS011;33688;44.354;9.228;2022-11-15T08:40:48;2.55;;;2.30;;
47922;SDS011;33688;44.354;9.228;2022-11-15T08:43:37;5.18;;;2.28;;
47922;SDS011;33688;44.354;9.228;2022-11-15T08:46:21;4.07;;;3.17;;
47922;SDS011;33688;44.354;9.228;2022-11-15T08:49:06;2.58;;;2.38;;
47922;SDS011;33688;44.354;9.228;2022-11-15T08:51:51;7.07;;;3.20;;
47922;SDS011;33688;44.354;9.228;2022-11-15T08:54:35;2.50;;;2.30;;
47922;SDS011;33688;44.354;9.228;2022-11-15T08:57:19;5.85;;;2.65;;
47922;SDS011;33688;44.354;9.228;2022-11-15T09:00:04;2.10;;;1.92;;
47922;SDS011;33688;44.354;9.228;2022-11-15T09:02:49;3.03;;;2.45;;
47922;SDS011;33688;44.354;9.228;2022-11-15T09:05:35;3.40;;;2.70;;
47922;SDS011;33688;44.354;9.228;2022-11-15T09:08:20;2.92;;;2.25;;
47922;SDS011;33688;44.354;9.228;2022-11-15T09:11:05;3.00;;;2.80;;
47922;SDS011;33688;44.354;9.228;2022-11-15T09:13:52;2.63;;;2.10;;
47922;SDS011;33688;44.354;9.228;2022-11-15T09:16:36;2.47;;;2.28;;
47922;SDS011;33688;44.354;9.228;2022-11-15T09:19:21;3.45;;;2.90;;
47922;SDS011;33688;44.354;9.228;2022-11-15T09:22:06;2.63;;;2.35;;
47922;SDS011;33688;44.354;9.228;2022-11-15T09:24:51;3.17;;;2.50;;
47922;SDS011;33688;44.354;9.228;2022-11-15T09:27:36;7.43;;;2.22;;
47922;SDS011;33688;44.354;9.228;2022-11-15T09:30:20;3.05;;;2.55;;
47922;SDS011;33688;44.354;9.228;2022-11-15T09:33:06;4.55;;;2.45;;
47922;SDS011;33688;44.354;9.228;2022-11-15T09:35:57;3.80;;;2.63;;
47922;SDS011;33688;44.354;9.228;2022-11-15T09:38:45;7.57;;;2.30;;
47922;SDS011;33688;44.354;9.228;2022-11-15T09:51:34;6.70;;;2.50;;
47922;SDS011;33688;44.354;9.228;2022-11-15T09:57:02;4.43;;;2.40;;
47922;SDS011;33688;44.354;9.228;2022-11-15T10:02:46;3.00;;;2.40;;
47922;SDS011;33688;44.354;9.228;2022-11-15T10:05:20;4.43;;;2.63;;
47922;SDS011;33688;44.354;9.228;2022-11-15T10:10:48;3.60;;;2.70;;
47922;SDS011;33688;44.354;9.228;2022-11-15T10:13:24;7.18;;;2.70;;
47922;SDS011;33688;44.354;9.228;2022-11-15T10:15:56;4.03;;;2.38;;
47922;SDS011;33688;44.354;9.228;2022-11-15T10:18:56;3.85;;;1.90;;
47922;SDS011;33688;44.354;9.228;2022-11-15T10:21:44;2.40;;;2.20;;
47922;SDS011;33688;44.354;9.228;2022-11-15T10:24:33;3.45;;;2.72;;
47922;SDS011;33688;44.354;9.228;2022-11-15T10:27:07;2.88;;;2.25;;
47922;SDS011;33688;44.354;9.228;2022-11-15T10:29:46;4.65;;;2.35;;
47922;SDS011;33688;44.354;9.228;2022-11-15T10:32:16;3.00;;;2.10;;
47922;SDS011;33688;44.354;9.228;2022-11-15T10:34:45;3.17;;;2.35;;
47922;SDS011;33688;44.354;9.228;2022-11-15T10:37:12;2.67;;;2.47;;
47922;SDS011;33688;44.354;9.228;2022-11-15T10:39:38;2.83;;;2.08;;
47922;SDS011;33688;44.354;9.228;2022-11-15T10:44:54;2.45;;;2.08;;
47922;SDS011;33688;44.354;9.228;2022-11-15T10:47:30;3.10;;;2.60;;
47922;SDS011;33688;44.354;9.228;2022-11-15T10:50:05;3.42;;;2.10;;
47922;SDS011;33688;44.354;9.228;2022-11-15T10:52:52;6.05;;;2.45;;
47922;SDS011;33688;44.354;9.228;2022-11-15T10:55:29;2.88;;;2.28;;
47922;SDS011;33688;44.354;9.228;2022-11-15T10:58:03;5.70;;;2.22;;
47922;SDS011;33688;44.354;9.228;2022-11-15T11:00:52;4.50;;;2.65;;
47922;SDS011;33688;44.354;9.228;2022-11-15T11:03:34;3.38;;;2.42;;
47922;SDS011;33688;44.354;9.228;2022-11-15T11:08:55;3.05;;;2.17;;
47922;SDS011;33688;44.354;9.228;2022-11-15T11:11:24;3.47;;;2.17;;
47922;SDS011;33688;44.354;9.228;2022-11-15T11:14:13;7.55;;;3.00;;
47922;SDS011;33688;44.354;9.228;2022-11-15T11:20:00;2.80;;;2.30;;
47922;SDS011;33688;44.354;9.228;2022-11-15T11:22:30;5.22;;;2.30;;
47922;SDS011;33688;44.354;9.228;2022-11-15T11:37:04;2.42;;;1.90;;
47922;SDS011;33688;44.354;9.228;2022-11-15T11:49:15;6.65;;;1.95;;
47922;SDS011;33688;44.354;9.228;2022-11-15T11:52:02;3.45;;;2.17;;
47922;SDS011;33688;44.354;9.228;2022-11-15T12:13:00;2.35;;;2.10;;
47922;SDS011;33688;44.354;9.228;2022-11-15T12:18:30;2.80;;;1.55;;
47922;SDS011;33688;44.354;9.228;2022-11-15T12:21:13;2.17;;;1.98;;
47922;SDS011;33688;44.354;9.228;2022-11-15T12:24:17;2.05;;;1.85;;
47922;SDS011;33688;44.354;9.228;2022-11-15T12:27:23;2.47;;;2.08;;
47922;SDS011;33688;44.354;9.228;2022-11-15T12:30:02;3.03;;;1.65;;
47922;SDS011;33688;44.354;9.228;2022-11-15T12:32:52;3.90;;;2.00;;
47922;SDS011;33688;44.354;9.228;2022-11-15T12:37:57;3.88;;;1.50;;
47922;SDS011;33688;44.354;9.228;2022-11-15T12:40:24;2.42;;;1.95;;
47922;SDS011;33688;44.354;9.228;2022-11-15T12:45:41;7.97;;;1.58;;
47922;SDS011;33688;44.354;9.228;2022-11-15T12:58:48;6.53;;;2.00;;
47922;SDS011;33688;44.354;9.228;2022-11-15T13:06:50;14.85;;;2.75;;
47922;SDS011;33688;44.354;9.228;2022-11-15T13:11:54;3.03;;;2.08;;
47922;SDS011;33688;44.354;9.228;2022-11-15T13:19:46;3.25;;;2.45;;
47922;SDS011;33688;44.354;9.228;2022-11-15T13:22:17;3.70;;;2.17;;
47922;SDS011;33688;44.354;9.228;2022-11-15T13:25:02;3.72;;;2.28;;
47922;SDS011;33688;44.354;9.228;2022-11-15T13:27:28;4.75;;;2.22;;
47922;SDS011;33688;44.354;9.228;2022-11-15T13:29:56;4.22;;;2.05;;
47922;SDS011;33688;44.354;9.228;2022-11-15T13:32:21;6.43;;;2.20;;
47922;SDS011;33688;44.354;9.228;2022-11-15T13:34:48;2.50;;;1.90;;
47922;SDS011;33688;44.354;9.228;2022-11-15T13:39:47;8.23;;;2.35;;
47922;SDS011;33688;44.354;9.228;2022-11-15T13:42:15;14.82;;;2.50;;
47922;SDS011;33688;44.354;9.228;2022-11-15T13:45:04;9.60;;;2.17;;
47922;SDS011;33688;44.354;9.228;2022-11-15T13:47:31;2.90;;;1.98;;
47922;SDS011;33688;44.354;9.228;2022-11-15T13:49:58;6.57;;;2.35;;
47922;SDS011;33688;44.354;9.228;2022-11-15T13:52:27;6.18;;;2.22;;
47922;SDS011;33688;44.354;9.228;2022-11-15T13:57:45;2.45;;;2.00;;
47922;SDS011;33688;44.354;9.228;2022-11-15T14:00:24;2.75;;;1.63;;
47922;SDS011;33688;44.354;9.228;2022-11-15T14:03:06;4.93;;;1.98;;
47922;SDS011;33688;44.354;9.228;2022-11-15T14:05:44;2.20;;;2.00;;
47922;SDS011;33688;44.354;9.228;2022-11-15T14:08:27;2.38;;;2.17;;
47922;SDS011;33688;44.354;9.228;2022-11-15T14:13:58;5.53;;;2.17;;
47922;SDS011;33688;44.354;9.228;2022-11-15T14:19:01;5.88;;;2.17;;
47922;SDS011;33688;44.354;9.228;2022-11-15T14:21:28;2.25;;;1.63;;
47922;SDS011;33688;44.354;9.228;2022-11-15T14:26:44;7.90;;;2.47;;
47922;SDS011;33688;44.354;9.228;2022-11-15T14:32:17;5.07;;;2.38;;
47922;SDS011;33688;44.354;9.228;2022-11-15T14:34:42;3.53;;;2.38;;
47922;SDS011;33688;44.354;9.228;2022-11-15T14:37:19;2.35;;;2.00;;
47922;SDS011;33688;44.354;9.228;2022-11-15T14:39:49;6.63;;;2.25;;
47922;SDS011;33688;44.354;9.228;2022-11-15T14:42:16;3.45;;;2.45;;
47922;SDS011;33688;44.354;9.228;2022-11-15T14:44:43;4.82;;;2.08;;
47922;SDS011;33688;44.354;9.228;2022-11-15T14:47:09;3.13;;;2.00;;
47922;SDS011;33688;44.354;9.228;2022-11-15T14:49:35;3.47;;;2.45;;
47922;SDS011;33688;44.354;9.228;2022-11-15T14:52:01;3.03;;;1.70;;
47922;SDS011;33688;44.354;9.228;2022-11-15T14:54:28;6.05;;;1.80;;
47922;SDS011;33688;44.354;9.228;2022-11-15T14:56:54;5.10;;;2.13;;
47922;SDS011;33688;44.354;9.228;2022-11-15T14:59:20;2.90;;;2.30;;
47922;SDS011;33688;44.354;9.228;2022-11-15T15:01:45;4.65;;;2.20;;
47922;SDS011;33688;44.354;9.228;2022-11-15T15:04:13;4.03;;;2.20;;
47922;SDS011;33688;44.354;9.228;2022-11-15T15:06:38;1.85;;;1.52;;
47922;SDS011;33688;44.354;9.228;2022-11-15T15:09:05;4.05;;;2.13;;
47922;SDS011;33688;44.354;9.228;2022-11-15T15:11:31;3.00;;;1.58;;
47922;SDS011;33688;44.354;9.228;2022-11-15T15:13:57;2.47;;;2.10;;
47922;SDS011;33688;44.354;9.228;2022-11-15T15:16:26;3.95;;;1.98;;
47922;SDS011;33688;44.354;9.228;2022-11-15T15:18:52;6.22;;;2.20;;
47922;SDS011;33688;44.354;9.228;2022-11-15T15:21:20;5.47;;;1.65;;
47922;SDS011;33688;44.354;9.228;2022-11-15T15:23:53;2.90;;;2.40;;
47922;SDS011;33688;44.354;9.228;2022-11-15T15:26:20;2.38;;;1.75;;
47922;SDS011;33688;44.354;9.228;2022-11-15T15:28:46;5.68;;;2.35;;
47922;SDS011;33688;44.354;9.228;2022-11-15T15:31:14;4.45;;;1.98;;
47922;SDS011;33688;44.354;9.228;2022-11-15T15:33:40;2.42;;;1.75;;
47922;SDS011;33688;44.354;9.228;2022-11-15T15:36:09;2.70;;;1.80;;
47922;SDS011;33688;44.354;9.228;2022-11-15T15:38:41;2.33;;;1.77;;
47922;SDS011;33688;44.354;9.228;2022-11-15T15:41:09;5.45;;;2.20;;
47922;SDS011;33688;44.354;9.228;2022-11-15T15:43:38;2.78;;;1.95;;
47922;SDS011;33688;44.354;9.228;2022-11-15T15:46:04;2.13;;;1.92;;
47922;SDS011;33688;44.354;9.228;2022-11-15T15:48:42;5.97;;;2.40;;
47922;SDS011;33688;44.354;9.228;2022-11-15T15:51:08;2.42;;;1.90;;
47922;SDS011;33688;44.354;9.228;2022-11-15T15:53:34;2.97;;;2.30;;
47922;SDS011;33688;44.354;9.228;2022-11-15T15:56:00;2.92;;;2.00;;
47922;SDS011;33688;44.354;9.228;2022-11-15T15:58:26;3.28;;;2.00;;
47922;SDS011;33688;44.354;9.228;2022-11-15T16:00:52;4.47;;;2.55;;
47922;SDS011;33688;44.354;9.228;2022-11-15T16:03:17;5.25;;;2.60;;
47922;SDS011;33688;44.354;9.228;2022-11-15T16:05:43;5.25;;;2.50;;
47922;SDS011;33688;44.354;9.228;2022-11-15T16:08:13;4.05;;;2.35;;
47922;SDS011;33688;44.354;9.228;2022-11-15T16:10:47;5.35;;;2.10;;
47922;SDS011;33688;44.354;9.228;2022-11-15T16:13:14;4.35;;;2.20;;
47922;SDS011;33688;44.354;9.228;2022-11-15T16:15:40;2.97;;;2.13;;
47922;SDS011;33688;44.354;9.228;2022-11-15T16:18:08;2.63;;;2.13;;
47922;SDS011;33688;44.354;9.228;2022-11-15T16:20:42;5.28;;;2.05;;
47922;SDS011;33688;44.354;9.228;2022-11-15T16:23:10;4.28;;;2.10;;
47922;SDS011;33688;44.354;9.228;2022-11-15T16:25:40;5.07;;;2.13;;
47922;SDS011;33688;44.354;9.228;2022-11-15T16:28:22;3.17;;;1.90;;
47922;SDS011;33688;44.354;9.228;2022-11-15T16:30:59;2.83;;;2.03;;
47922;SDS011;33688;44.354;9.228;2022-11-15T16:33:28;2.15;;;1.95;;
47922;SDS011;33688;44.354;9.228;2022-11-15T16:35:54;3.00;;;2.20;;
47922;SDS011;33688;44.354;9.228;2022-11-15T16:38:19;3.70;;;2.55;;
47922;SDS011;33688;44.354;9.228;2022-11-15T16:40:45;2.38;;;1.90;;
47922;SDS011;33688;44.354;9.228;2022-11-15T16:43:11;2.50;;;2.08;;
47922;SDS011;33688;44.354;9.228;2022-11-15T16:45:37;2.33;;;1.90;;
47922;SDS011;33688;44.354;9.228;2022-11-15T16:48:04;2.75;;;2.17;;
47922;SDS011;33688;44.354;9.228;2022-11-15T16:50:31;2.75;;;2.10;;
47922;SDS011;33688;44.354;9.228;2022-11-15T16:53:04;2.15;;;1.90;;
47922;SDS011;33688;44.354;9.228;2022-11-15T16:55:31;2.95;;;1.90;;
47922;SDS011;33688;44.354;9.228;2022-11-15T16:57:56;4.13;;;2.00;;
47922;SDS011;33688;44.354;9.228;2022-11-15T17:00:23;4.57;;;2.38;;
47922;SDS011;33688;44.354;9.228;2022-11-15T17:02:50;3.20;;;1.88;;
47922;SDS011;33688;44.354;9.228;2022-11-15T17:05:17;2.67;;;2.33;;
47922;SDS011;33688;44.354;9.228;2022-11-15T17:07:47;15.18;;;2.55;;
47922;SDS011;33688;44.354;9.228;2022-11-15T17:10:16;2.20;;;1.90;;
47922;SDS011;33688;44.354;9.228;2022-11-15T17:12:42;3.33;;;2.20;;
47922;SDS011;33688;44.354;9.228;2022-11-15T17:15:10;4.82;;;2.13;;
47922;SDS011;33688;44.354;9.228;2022-11-15T17:17:37;4.85;;;2.63;;
47922;SDS011;33688;44.354;9.228;2022-11-15T17:20:04;4.32;;;1.83;;
47922;SDS011;33688;44.354;9.228;2022-11-15T17:22:34;3.47;;;2.22;;
47922;SDS011;33688;44.354;9.228;2022-11-15T17:25:02;3.50;;;2.13;;
47922;SDS011;33688;44.354;9.228;2022-11-15T17:27:29;6.45;;;3.17;;
47922;SDS011;33688;44.354;9.228;2022-11-15T17:29:56;5.13;;;2.15;;
47922;SDS011;33688;44.354;9.228;2022-11-15T17:32:21;2.92;;;2.00;;
47922;SDS011;33688;44.354;9.228;2022-11-15T17:34:48;4.20;;;2.20;;
47922;SDS011;33688;44.354;9.228;2022-11-15T17:37:14;4.28;;;1.92;;
47922;SDS011;33688;44.354;9.228;2022-11-15T17:39:40;6.07;;;2.35;;
47922;SDS011;33688;44.354;9.228;2022-11-15T17:42:06;3.28;;;2.20;;
47922;SDS011;33688;44.354;9.228;2022-11-15T17:44:32;3.40;;;2.63;;
47922;SDS011;33688;44.354;9.228;2022-11-15T17:46:58;2.28;;;1.80;;
47922;SDS011;33688;44.354;9.228;2022-11-15T17:49:23;3.80;;;2.33;;
47922;SDS011;33688;44.354;9.228;2022-11-15T17:51:49;3.80;;;2.67;;
47922;SDS011;33688;44.354;9.228;2022-11-15T17:54:15;5.75;;;2.30;;
47922;SDS011;33688;44.354;9.228;2022-11-15T17:56:41;4.93;;;1.92;;
47922;SDS011;33688;44.354;9.228;2022-11-15T17:59:06;4.00;;;2.42;;
47922;SDS011;33688;44.354;9.228;2022-11-15T18:01:34;3.75;;;1.77;;
47922;SDS011;33688;44.354;9.228;2022-11-15T18:04:03;2.60;;;1.95;;
47922;SDS011;33688;44.354;9.228;2022-11-15T18:06:33;4.15;;;2.50;;
47922;SDS011;33688;44.354;9.228;2022-11-15T18:09:01;5.32;;;3.08;;
47922;SDS011;33688;44.354;9.228;2022-11-15T18:11:29;3.08;;;2.45;;
47922;SDS011;33688;44.354;9.228;2022-11-15T18:14:03;5.32;;;2.33;;
47922;SDS011;33688;44.354;9.228;2022-11-15T18:16:33;5.45;;;2.20;;
47922;SDS011;33688;44.354;9.228;2022-11-15T18:19:01;5.03;;;2.25;;
47922;SDS011;33688;44.354;9.228;2022-11-15T18:21:33;3.70;;;2.70;;
47922;SDS011;33688;44.354;9.228;2022-11-15T18:23:59;3.28;;;2.42;;
47922;SDS011;33688;44.354;9.228;2022-11-15T18:26:26;3.20;;;2.05;;
47922;SDS011;33688;44.354;9.228;2022-11-15T18:28:55;4.50;;;2.13;;
47922;SDS011;33688;44.354;9.228;2022-11-15T18:31:27;6.32;;;1.98;;
47922;SDS011;33688;44.354;9.228;2022-11-15T18:33:55;4.68;;;2.75;;
47922;SDS011;33688;44.354;9.228;2022-11-15T18:36:25;4.18;;;2.72;;
47922;SDS011;33688;44.354;9.228;2022-11-15T18:38:59;3.63;;;2.42;;